Bloom, Kansas
Current Conditions -  °F | °C
As of 8:52 AM on Monday 24 Nov 2014 (Local Time) from KDDC Reporting Station
Clear Clear  
Wind Chill: 26°   Ceiling: Unl
Heat Index: 36°   Visibility: 10mi
Dew Point: 17°   Wind: 17mph
Humidity: 46%   Direction: 280°W
Pressure: 29.92"   Gusts: NA
Location:  37.3916°N, 99.8236°W
Report Text: KDDC 241452Z AUTO 28015KT 10SM CLR 02/M08 A2992 RMK AO2 SLP143 T00221083 53019
Loading
Personal Weather Stations






























Interactive Weather Map New forecast layout! Learn more

10-Day Weather Forecast

Advertisements
Track Severe Weather on mobile